createdAt,value
2019-02-25T00:00:28.305Z,1.79
2019-02-25T00:01:29.475Z,1.84
2019-02-25T00:02:30.158Z,1.82
2019-02-25T00:03:30.297Z,1.79
2019-02-25T00:04:31.700Z,1.79
2019-02-25T00:05:32.661Z,1.82
2019-02-25T00:06:33.066Z,1.79
2019-02-25T00:07:33.758Z,1.78
2019-02-25T00:08:34.164Z,1.75
2019-02-25T00:09:35.003Z,1.81
2019-02-25T00:10:36.814Z,1.78
2019-02-25T00:11:36.943Z,1.79
2019-02-25T00:12:38.180Z,1.88
2019-02-25T00:13:38.591Z,1.82
2019-02-25T00:14:39.719Z,1.85
2019-02-25T00:15:40.679Z,1.86
2019-02-25T00:16:42.361Z,1.89
2019-02-25T00:17:42.766Z,1.97
2019-02-25T00:18:43.177Z,1.93
2019-02-25T00:19:44.541Z,1.98
2019-02-25T00:20:45.787Z,1.93
2019-02-25T00:21:46.474Z,1.98
2019-02-25T00:22:46.887Z,2
2019-02-25T00:23:47.844Z,1.97
2019-02-25T00:24:48.247Z,1.95
2019-02-25T00:25:48.928Z,1.89
2019-02-25T00:26:49.617Z,1.86
2019-02-25T00:27:50.069Z,1.88
2019-02-25T00:28:50.237Z,1.95
2019-02-25T00:29:51.072Z,1.93
2019-02-25T00:30:51.796Z,1.85
2019-02-25T00:31:52.478Z,1.81
2019-02-25T00:32:52.881Z,1.76
2019-02-25T00:33:53.571Z,1.79
2019-02-25T00:34:53.979Z,1.81
2019-02-25T00:35:54.383Z,1.82
2019-02-25T00:36:55.343Z,1.82
2019-02-25T00:37:55.752Z,1.79
2019-02-25T00:38:56.712Z,1.6
2019-02-25T00:39:57.101Z,1.52
2019-02-25T00:40:57.781Z,1.43
2019-02-25T00:41:58.479Z,1.48
2019-02-25T00:42:58.608Z,1.43
2019-02-25T00:44:00.040Z,1.57
2019-02-25T00:45:00.305Z,1.57
2019-02-25T00:46:00.813Z,1.53
2019-02-25T00:47:01.497Z,1.61
2019-02-25T00:48:02.471Z,1.49
2019-02-25T00:49:02.998Z,1.61
2019-02-25T00:50:03.971Z,1.58
2019-02-25T00:51:04.660Z,1.63
2019-02-25T00:52:05.341Z,1.64
2019-02-25T00:53:06.023Z,1.74
2019-02-25T00:54:06.704Z,1.79
2019-02-25T00:55:08.107Z,1.67
2019-02-25T00:56:09.069Z,1.79
2019-02-25T00:57:10.756Z,1.81
2019-02-25T00:58:11.166Z,1.78
2019-02-25T00:59:11.570Z,1.78
2019-02-25T01:00:11.841Z,1.79
2019-02-25T01:01:13.574Z,1.75
2019-02-25T01:02:13.701Z,1.75
2019-02-25T01:03:15.102Z,1.71
2019-02-25T01:04:16.228Z,1.74
2019-02-25T01:05:17.192Z,1.88
2019-02-25T01:06:17.604Z,1.81
2019-02-25T01:07:19.287Z,1.81
2019-02-25T01:08:19.411Z,1.67
2019-02-25T01:09:20.367Z,1.57
2019-02-25T01:10:21.197Z,1.5
2019-02-25T01:11:22.159Z,1.52
2019-02-25T01:12:23.124Z,1.52
2019-02-25T01:13:23.251Z,1.58
2019-02-25T01:14:23.934Z,1.58
2019-02-25T01:15:24.338Z,1.56
2019-02-25T01:16:25.019Z,1.57
2019-02-25T01:17:26.001Z,1.6
2019-02-25T01:18:26.405Z,1.56
2019-02-25T01:19:26.811Z,1.53
2019-02-25T01:20:27.621Z,1.53
2019-02-25T01:21:29.304Z,1.53
2019-02-25T01:22:29.712Z,1.46
2019-02-25T01:23:30.395Z,1.39
2019-02-25T01:24:30.801Z,1.46
2019-02-25T01:25:31.515Z,1.5
2019-02-25T01:26:32.195Z,1.46
2019-02-25T01:27:32.324Z,1.39
2019-02-25T01:28:32.726Z,1.36
2019-02-25T01:29:33.686Z,1.32
2019-02-25T01:30:34.796Z,1.34
2019-02-25T01:31:35.251Z,1.38
2019-02-25T01:32:36.215Z,1.57
2019-02-25T01:33:36.626Z,1.57
2019-02-25T01:34:37.754Z,1.53
2019-02-25T01:35:38.717Z,1.53
2019-02-25T01:36:39.122Z,1.52
2019-02-25T01:37:40.523Z,1.56
2019-02-25T01:38:41.483Z,1.57
2019-02-25T01:39:41.885Z,1.63
2019-02-25T01:40:43.276Z,1.68
2019-02-25T01:41:43.401Z,1.7
2019-02-25T01:42:44.156Z,1.66
2019-02-25T01:43:44.840Z,1.74
2019-02-25T01:44:45.801Z,1.84
2019-02-25T01:45:46.211Z,1.82
2019-02-25T01:46:46.620Z,1.79
2019-02-25T01:47:47.303Z,1.82
2019-02-25T01:48:48.706Z,1.86
2019-02-25T01:49:48.832Z,1.84
2019-02-25T01:50:49.941Z,1.82
2019-02-25T01:51:50.899Z,1.86
2019-02-25T01:52:51.651Z,1.82
2019-02-25T01:53:52.060Z,1.92
2019-02-25T01:54:53.019Z,1.93
2019-02-25T01:55:53.979Z,1.86
2019-02-25T01:56:55.223Z,1.88
2019-02-25T01:57:55.624Z,2
2019-02-25T01:58:56.586Z,1.89
2019-02-25T01:59:57.341Z,1.82
2019-02-25T02:00:58.207Z,1.81
2019-02-25T02:01:58.897Z,1.81
2019-02-25T02:02:59.852Z,1.78
2019-02-25T02:04:00.259Z,1.79
2019-02-25T02:05:00.956Z,1.79
2019-02-25T02:06:01.363Z,1.68
2019-02-25T02:07:03.051Z,1.78
2019-02-25T02:08:04.291Z,1.63
2019-02-25T02:09:04.805Z,1.71
2019-02-25T02:10:04.764Z,1.82
2019-02-25T02:11:05.859Z,1.74
2019-02-25T02:12:07.102Z,1.74
2019-02-25T02:13:19.537Z,1.85
2019-02-25T02:14:19.670Z,1.84
2019-02-25T02:15:20.640Z,1.93
2019-02-25T02:16:21.621Z,1.84
2019-02-25T02:17:22.025Z,1.88
2019-02-25T02:18:22.433Z,1.95
2019-02-25T02:19:23.838Z,1.95
2019-02-25T02:20:24.810Z,1.89
2019-02-25T02:21:24.938Z,1.93
2019-02-25T02:22:26.343Z,1.93
2019-02-25T02:23:27.029Z,1.92
2019-02-25T02:24:26.838Z,1.81
2019-02-25T02:25:27.519Z,1.82
2019-02-25T02:26:28.254Z,1.79
2019-02-25T02:27:28.934Z,1.84
2019-02-25T02:28:29.341Z,1.68
2019-02-25T02:29:30.745Z,1.85
2019-02-25T02:30:31.428Z,1.79
2019-02-25T02:31:31.433Z,1.78
2019-02-25T02:32:32.672Z,1.82
2019-02-25T02:33:33.218Z,1.81
2019-02-25T02:34:33.755Z,1.71
2019-02-25T02:35:34.455Z,1.81
2019-02-25T02:36:35.415Z,1.71
2019-02-25T02:37:36.223Z,1.78
2019-02-25T02:38:37.195Z,1.78
2019-02-25T02:39:37.879Z,1.74
2019-02-25T02:40:38.281Z,1.84
2019-02-25T02:41:39.255Z,1.78
2019-02-25T02:42:39.875Z,1.75
2019-02-25T02:43:39.845Z,1.66
2019-02-25T02:44:40.790Z,1.81
2019-02-25T02:45:42.604Z,1.82
2019-02-25T02:46:42.303Z,1.81
2019-02-25T02:47:43.000Z,1.68
2019-02-25T02:48:43.681Z,1.76
2019-02-25T02:49:45.260Z,1.84
2019-02-25T02:50:45.664Z,1.79
2019-02-25T02:51:47.086Z,1.68
2019-02-25T02:52:48.086Z,1.63
2019-02-25T02:53:48.049Z,1.75
2019-02-25T02:54:49.440Z,1.61
2019-02-25T02:55:49.973Z,1.67
2019-02-25T02:56:50.213Z,1.64
2019-02-25T02:57:51.466Z,1.7
2019-02-25T02:58:51.746Z,1.68
2019-02-25T02:59:52.432Z,1.7
2019-02-25T03:00:53.836Z,1.7
2019-02-25T03:01:54.082Z,1.78
2019-02-25T03:02:54.053Z,1.78
2019-02-25T03:03:55.024Z,1.78
2019-02-25T03:04:55.317Z,1.78
2019-02-25T03:05:56.284Z,1.76
2019-02-25T03:06:56.539Z,1.75
2019-02-25T03:07:57.225Z,1.78
2019-02-25T03:08:57.802Z,1.84
2019-02-25T03:10:00.495Z,1.81
2019-02-25T03:11:01.733Z,1.81
2019-02-25T03:12:01.418Z,1.78
2019-02-25T03:13:02.939Z,1.7
2019-02-25T03:14:03.506Z,1.63
2019-02-25T03:15:03.594Z,1.61
2019-02-25T03:16:04.836Z,1.57
2019-02-25T03:17:05.240Z,1.5
2019-02-25T03:18:05.935Z,1.56
2019-02-25T03:19:06.338Z,1.46
2019-02-25T03:20:06.861Z,1.34
2019-02-25T03:21:07.101Z,1.34
2019-02-25T03:22:08.073Z,1.28
2019-02-25T03:23:08.759Z,1.2
2019-02-25T03:24:09.449Z,1.2
2019-02-25T03:25:10.141Z,1.2
2019-02-25T03:26:10.139Z,1.14
2019-02-25T03:27:10.653Z,1.12
2019-02-25T03:28:11.221Z,1.2
2019-02-25T03:29:11.951Z,1.13
2019-02-25T03:30:12.973Z,1.2
2019-02-25T03:31:13.211Z,1.14
2019-02-25T03:32:15.368Z,1.12
2019-02-25T03:33:15.633Z,1.18
2019-02-25T03:34:16.042Z,1.1
2019-02-25T03:35:17.044Z,1.13
2019-02-25T03:36:18.203Z,1.03
2019-02-25T03:37:18.512Z,0.99
2019-02-25T03:38:19.196Z,1.02
2019-02-25T03:39:19.600Z,1.04
2019-02-25T03:40:20.566Z,0.99
2019-02-25T03:41:20.277Z,1
2019-02-25T03:42:21.234Z,1.03
2019-02-25T03:43:21.933Z,0.96
2019-02-25T03:44:22.900Z,1
2019-02-25T03:45:23.841Z,0.99
2019-02-25T03:46:24.247Z,1.02
2019-02-25T03:47:25.491Z,0.95
2019-02-25T03:48:26.830Z,0.96
2019-02-25T03:49:28.248Z,1.04
2019-02-25T03:50:29.488Z,1.09
2019-02-25T03:51:29.455Z,1.04
2019-02-25T03:52:30.695Z,1.09
2019-02-25T03:53:30.684Z,1.16
2019-02-25T03:54:31.382Z,1.21
2019-02-25T03:55:32.497Z,1.06
2019-02-25T03:56:33.464Z,1.1
2019-02-25T03:57:37.193Z,1.06
2019-02-25T03:58:35.711Z,1.09
2019-02-25T03:59:36.118Z,1.16
2019-02-25T04:00:36.519Z,1.06
2019-02-25T04:01:37.502Z,1.14
2019-02-25T04:02:37.763Z,1.21
2019-02-25T04:03:38.169Z,1.16
2019-02-25T04:04:39.326Z,1.14
2019-02-25T04:05:40.985Z,1.24
2019-02-25T04:06:42.241Z,1.22
2019-02-25T04:07:42.489Z,1.18
2019-02-25T04:08:42.729Z,1.1
2019-02-25T04:09:43.133Z,1.14
2019-02-25T04:10:43.971Z,1.12
2019-02-25T04:11:43.658Z,1.12
2019-02-25T04:12:44.639Z,1.2
2019-02-25T04:13:45.460Z,1.14
2019-02-25T04:14:45.886Z,1.18
2019-02-25T04:15:46.838Z,1.14
2019-02-25T04:16:47.813Z,1.1
2019-02-25T04:17:00.559Z,1.14
2019-02-25T04:18:01.968Z,1.2
2019-02-25T04:19:02.210Z,1.12
2019-02-25T04:20:02.981Z,1.14
2019-02-25T04:21:03.961Z,1.16
2019-02-25T04:22:04.657Z,1.18
2019-02-25T04:23:05.341Z,1.2
2019-02-25T04:24:05.319Z,1.2
2019-02-25T04:25:06.300Z,1.12
2019-02-25T04:26:07.341Z,1.06
2019-02-25T04:27:07.580Z,1.06
2019-02-25T04:28:08.393Z,0.95
2019-02-25T04:28:28.950Z,1.12
2019-02-25T04:29:29.771Z,1.1
2019-02-25T04:30:30.042Z,1.12
2019-02-25T04:31:30.571Z,1.18
2019-02-25T04:32:32.261Z,1.12
2019-02-25T04:33:32.943Z,1.16
2019-02-25T04:34:33.631Z,1.09
2019-02-25T04:35:35.037Z,1.09
2019-02-25T04:36:35.731Z,1.03
2019-02-25T04:37:36.417Z,0.94
2019-02-25T04:38:37.661Z,0.94
2019-02-25T04:39:37.926Z,0.96
2019-02-25T04:40:38.903Z,0.99
2019-02-25T04:41:39.862Z,0.91
2019-02-25T04:42:40.272Z,0.91
2019-02-25T04:43:40.680Z,0.99
2019-02-25T04:44:41.389Z,1.02
2019-02-25T04:45:42.356Z,1
2019-02-25T04:46:43.052Z,0.96
2019-02-25T04:47:44.085Z,0.99
2019-02-25T04:48:45.344Z,0.92
2019-02-25T04:49:45.734Z,1.02
2019-02-25T04:50:46.159Z,0.94
2019-02-25T04:51:47.403Z,1.02
2019-02-25T04:52:47.535Z,1.02
2019-02-25T04:53:47.941Z,0.96
2019-02-25T04:54:49.070Z,0.92
2019-02-25T04:55:50.050Z,0.92
2019-02-25T04:56:50.610Z,0.91
2019-02-25T04:57:51.309Z,0.86
2019-02-25T04:58:52.280Z,0.95
2019-02-25T04:59:52.824Z,0.92
2019-02-25T05:00:53.797Z,0.85
2019-02-25T05:01:54.211Z,0.84
2019-02-25T05:02:55.213Z,0.82
2019-02-25T05:03:56.289Z,0.84
2019-02-25T05:04:56.582Z,1
2019-02-25T05:05:57.545Z,0.99
2019-02-25T05:06:57.507Z,1.03
2019-02-25T05:07:58.194Z,0.96
2019-02-25T05:08:59.157Z,0.99
2019-02-25T05:09:59.971Z,1.02
2019-02-25T05:11:00.674Z,0.92
2019-02-25T05:12:01.650Z,0.92
2019-02-25T05:13:01.917Z,0.89
2019-02-25T05:14:02.455Z,0.92
2019-02-25T05:15:03.146Z,0.91
2019-02-25T05:16:04.176Z,0.92
2019-02-25T05:17:04.765Z,0.86
2019-02-25T05:18:05.325Z,0.88
2019-02-25T05:19:06.318Z,0.88
2019-02-25T05:20:07.269Z,0.92
2019-02-25T05:21:08.253Z,0.96
2019-02-25T05:22:09.497Z,0.99
2019-02-25T05:23:09.469Z,0.99
2019-02-25T05:24:11.276Z,0.96
2019-02-25T05:25:11.246Z,1
2019-02-25T05:26:12.071Z,0.95
2019-02-25T05:27:12.766Z,1.02
2019-02-25T05:28:14.462Z,1.03
2019-02-25T05:29:14.870Z,0.99
2019-02-25T05:30:16.396Z,0.89
2019-02-25T05:31:16.930Z,0.99
2019-02-25T05:32:18.204Z,0.95
2019-02-25T05:33:18.897Z,0.95
2019-02-25T05:34:19.326Z,0.96
2019-02-25T05:35:20.587Z,0.95
2019-02-25T05:36:21.059Z,0.95
2019-02-25T05:37:22.584Z,1
2019-02-25T05:38:22.906Z,1
2019-02-25T05:39:24.323Z,0.81
2019-02-25T05:40:25.166Z,0.88
2019-02-25T05:41:26.136Z,0.84
2019-02-25T05:42:26.555Z,0.89
2019-02-25T05:43:27.238Z,0.91
2019-02-25T05:44:28.938Z,0.81
2019-02-25T05:45:29.196Z,0.78
2019-02-25T05:46:29.167Z,0.91
2019-02-25T05:47:29.863Z,0.84
2019-02-25T05:48:30.999Z,0.86
2019-02-25T05:49:32.530Z,0.84
2019-02-25T05:50:33.502Z,0.86
2019-02-25T05:51:33.465Z,0.85
2019-02-25T05:52:34.453Z,0.82
2019-02-25T05:53:34.451Z,0.85
2019-02-25T05:54:34.719Z,0.88
2019-02-25T05:55:35.973Z,0.95
2019-02-25T05:56:35.666Z,0.94
2019-02-25T05:57:36.922Z,1
2019-02-25T05:58:37.090Z,0.99
2019-02-25T05:59:37.783Z,0.99
2019-02-25T06:00:38.450Z,1.13
2019-02-25T06:01:39.137Z,1.1
2019-02-25T06:02:39.894Z,1.12
2019-02-25T06:03:40.867Z,1.07
2019-02-25T06:04:41.558Z,1.07
2019-02-25T06:05:42.252Z,1.13
2019-02-25T06:06:43.222Z,1.14
2019-02-25T06:07:44.199Z,1.18
2019-02-25T06:08:44.615Z,1.21
2019-02-25T06:09:45.860Z,1.18
2019-02-25T06:10:46.860Z,1.3
2019-02-25T06:11:47.845Z,1.31
2019-02-25T06:12:48.813Z,1.32
2019-02-25T06:13:49.247Z,1.28
2019-02-25T06:14:49.657Z,1.25
2019-02-25T06:15:52.901Z,1.32
2019-02-25T06:16:53.345Z,1.31
2019-02-25T06:17:53.821Z,1.24
2019-02-25T06:18:54.527Z,1.14
2019-02-25T06:19:55.489Z,1.13
2019-02-25T06:20:56.591Z,1.12
2019-02-25T06:21:58.283Z,1.13
2019-02-25T06:22:58.972Z,1.2
2019-02-25T06:24:00.112Z,1.13
2019-02-25T06:25:01.213Z,1.12
2019-02-25T06:26:02.440Z,1.12
2019-02-25T06:27:02.744Z,1.22
2019-02-25T06:28:04.022Z,1.3
2019-02-25T06:29:04.265Z,1.52
2019-02-25T06:30:04.954Z,1.67
2019-02-25T06:31:06.068Z,1.89
2019-02-25T06:32:06.540Z,2.1
2019-02-25T06:33:07.784Z,2.41
2019-02-25T06:34:08.476Z,2.69
2019-02-25T06:35:08.649Z,2.64
2019-02-25T06:36:09.800Z,2.68
2019-02-25T06:37:10.549Z,2.7
2019-02-25T06:38:11.532Z,2.98
2019-02-25T06:39:11.955Z,3.29
2019-02-25T06:40:16.326Z,3.22
2019-02-25T06:41:13.364Z,3.12
2019-02-25T06:42:14.307Z,3.21
2019-02-25T06:43:15.707Z,3.06
2019-02-25T06:44:16.456Z,3.12
2019-02-25T06:45:16.895Z,3.09
2019-02-25T06:46:17.116Z,3.08
2019-02-25T06:47:18.556Z,3.03
2019-02-25T06:48:18.971Z,3.12
2019-02-25T06:49:19.389Z,3.12
2019-02-25T06:50:20.806Z,3.19
2019-02-25T06:51:21.955Z,3.33
2019-02-25T06:52:22.647Z,3.36
2019-02-25T06:53:23.792Z,3.43
2019-02-25T06:54:24.537Z,3.45
2019-02-25T06:55:24.997Z,3.46
2019-02-25T06:56:26.026Z,3.49
2019-02-25T06:57:26.766Z,3.45
2019-02-25T06:58:27.468Z,3.52
2019-02-25T06:59:28.174Z,3.58
2019-02-25T07:00:29.147Z,3.67
2019-02-25T07:01:29.812Z,3.67
2019-02-25T07:02:30.949Z,3.66
2019-02-25T07:03:31.720Z,3.64
2019-02-25T07:04:32.403Z,3.68
2019-02-25T07:05:32.935Z,3.81
2019-02-25T07:06:33.169Z,3.89
2019-02-25T07:07:33.394Z,4.13
2019-02-25T07:08:34.888Z,4.3
2019-02-25T07:09:35.796Z,4.5
2019-02-25T07:10:36.036Z,4.6
2019-02-25T07:11:37.142Z,4.74
2019-02-25T07:12:38.278Z,4.83
2019-02-25T07:13:39.422Z,4.76
2019-02-25T07:14:40.394Z,4.79
2019-02-25T07:15:41.207Z,4.67
2019-02-25T07:16:42.208Z,4.52
2019-02-25T07:17:42.739Z,4.5
2019-02-25T07:18:43.709Z,4.49
2019-02-25T07:19:44.410Z,4.49
2019-02-25T07:20:45.110Z,4.34
2019-02-25T07:21:46.050Z,4.3
2019-02-25T07:22:47.038Z,4.46
2019-02-25T07:23:47.011Z,4.31
2019-02-25T07:24:54.064Z,4.53
2019-02-25T07:24:59.743Z,4.53
2019-02-25T07:26:00.418Z,4.75
2019-02-25T07:27:01.113Z,5
2019-02-25T07:28:02.086Z,5.54
2019-02-25T07:29:04.652Z,6.15
2019-02-25T07:30:05.347Z,6.77
2019-02-25T07:31:06.250Z,7.59
2019-02-25T07:32:06.037Z,8.02
2019-02-25T07:33:06.743Z,8.53
2019-02-25T07:34:08.000Z,9.13
2019-02-25T07:35:07.709Z,9.69
2019-02-25T07:36:08.969Z,10.09
2019-02-25T07:37:09.385Z,10.65
2019-02-25T07:38:10.675Z,11.15
2019-02-25T07:39:11.772Z,11.44
2019-02-25T07:40:12.626Z,11.78
2019-02-25T07:41:13.622Z,12
2019-02-25T07:42:14.603Z,12.32
2019-02-25T07:43:16.766Z,12.29
2019-02-25T07:44:17.745Z,12.23
2019-02-25T07:45:18.448Z,12.02
2019-02-25T07:46:18.630Z,11.55
2019-02-25T07:47:19.325Z,11.37
2019-02-25T07:48:20.029Z,11.16
2019-02-25T07:49:22.567Z,10.84
2019-02-25T07:50:24.572Z,10.61
2019-02-25T07:51:28.220Z,10.57
2019-02-25T07:51:39.586Z,10.39
2019-02-25T07:51:52.406Z,10.41
2019-02-25T07:52:52.235Z,10.18
2019-02-25T07:53:52.797Z,10.06
2019-02-25T07:54:52.713Z,9.95
2019-02-25T07:56:05.382Z,9.88
2019-02-25T07:57:06.490Z,9.8
2019-02-25T07:58:06.484Z,9.74
2019-02-25T07:59:07.185Z,9.84
2019-02-25T08:00:07.442Z,10
2019-02-25T08:01:07.924Z,9.94
2019-02-25T08:02:08.825Z,10.07
2019-02-25T08:03:09.530Z,10
2019-02-25T08:04:09.605Z,10.02
2019-02-25T08:05:10.307Z,10.15
2019-02-25T08:06:13.756Z,10.3
2019-02-25T08:07:13.937Z,10.21
2019-02-25T08:08:14.916Z,10.3
2019-02-25T08:09:15.339Z,10.27
2019-02-25T08:10:16.203Z,9.95
2019-02-25T08:11:16.906Z,9.84
2019-02-25T08:12:17.606Z,9.94
2019-02-25T08:13:18.079Z,10.13
2019-02-25T08:14:19.078Z,10.61
2019-02-25T08:15:20.056Z,10.9
2019-02-25T08:16:20.487Z,11.08
2019-02-25T08:17:21.107Z,11.18
2019-02-25T08:18:21.602Z,11.37
2019-02-25T08:19:22.616Z,11.34
2019-02-25T08:20:23.177Z,11.19
2019-02-25T08:21:23.329Z,11.18
2019-02-25T08:22:24.762Z,11.22
2019-02-25T08:23:25.914Z,11.12
2019-02-25T08:24:31.804Z,11.27
2019-02-25T08:25:32.535Z,11.33
2019-02-25T08:26:32.962Z,11.44
2019-02-25T08:27:34.087Z,11.34
2019-02-25T08:28:34.237Z,11.44
2019-02-25T08:29:36.414Z,11.67
2019-02-25T08:30:35.404Z,11.85
2019-02-25T08:31:36.662Z,12.32
2019-02-25T08:32:37.085Z,12.8
2019-02-25T08:33:39.512Z,13.36
2019-02-25T08:34:39.564Z,13.83
2019-02-25T08:35:40.992Z,14.31
2019-02-25T08:36:41.980Z,15.04
2019-02-25T08:37:42.109Z,15.1
2019-02-25T08:38:43.095Z,15.48
2019-02-25T08:39:43.520Z,15.39
2019-02-25T08:40:45.158Z,14.68
2019-02-25T08:41:45.594Z,13.76
2019-02-25T08:42:46.302Z,12.83
2019-02-25T08:43:46.543Z,12.21
2019-02-25T08:44:48.250Z,12.18
2019-02-25T08:45:48.788Z,12.37
2019-02-25T08:46:49.938Z,12.78
2019-02-25T08:47:50.780Z,13.06
2019-02-25T08:48:51.211Z,13.45
2019-02-25T08:49:51.922Z,13.78
2019-02-25T08:50:52.633Z,13.75
2019-02-25T08:51:53.390Z,14.13
2019-02-25T08:52:54.646Z,14.52
2019-02-25T08:53:54.838Z,14.36
2019-02-25T08:54:55.588Z,14.67
2019-02-25T08:55:56.029Z,14.81
2019-02-25T08:56:57.152Z,15.43
2019-02-25T08:57:58.048Z,15.69
2019-02-25T08:58:58.755Z,15.81
2019-02-25T08:59:59.738Z,16.51
2019-02-25T09:01:00.025Z,16.79
2019-02-25T09:02:00.456Z,16.54
2019-02-25T09:03:01.156Z,16.44
2019-02-25T09:04:02.576Z,16.76
2019-02-25T09:05:02.804Z,17.01
2019-02-25T09:06:04.075Z,17.42
2019-02-25T09:07:04.231Z,17.71
2019-02-25T09:08:05.098Z,17.38
2019-02-25T09:09:06.366Z,17.8
2019-02-25T09:10:09.027Z,17.95
2019-02-25T09:10:20.482Z,17.88
2019-02-25T09:11:23.543Z,17.69
2019-02-25T09:11:34.624Z,17.73
2019-02-25T09:11:44.886Z,17.78
2019-02-25T09:12:44.590Z,18
2019-02-25T09:13:44.868Z,18.15
2019-02-25T09:14:45.886Z,18.46
2019-02-25T09:15:46.268Z,18.49
2019-02-25T09:16:47.541Z,18.03
2019-02-25T09:17:47.808Z,17.53
2019-02-25T09:18:51.301Z,17.04
2019-02-25T09:19:50.215Z,16.92
2019-02-25T09:20:51.263Z,16.86
2019-02-25T09:21:51.969Z,16.51
2019-02-25T09:22:53.055Z,15.7
2019-02-25T09:23:53.780Z,15.05
2019-02-25T09:24:54.929Z,14.56
2019-02-25T09:25:55.359Z,14.18
2019-02-25T09:26:56.367Z,13.79
2019-02-25T09:27:56.797Z,13.27
2019-02-25T09:28:58.717Z,13.2
2019-02-25T09:29:59.279Z,13.24
2019-02-25T09:31:03.262Z,13.21
2019-02-25T09:31:13.107Z,13.28
2019-02-25T09:32:13.066Z,13.09
2019-02-25T09:33:13.813Z,13.12
2019-02-25T09:34:15.380Z,13.26
2019-02-25T09:35:15.611Z,13.21
2019-02-25T09:36:16.593Z,13.28
2019-02-25T09:37:17.582Z,13.49
2019-02-25T09:38:18.021Z,13.68
2019-02-25T09:39:19.558Z,13.71
2019-02-25T09:40:19.991Z,13.93
2019-02-25T09:41:32.811Z,14.37
2019-02-25T09:42:33.945Z,14.37
2019-02-25T09:43:35.572Z,14.28
2019-02-25T09:44:39.302Z,14.25
2019-02-25T09:45:37.021Z,14.26
2019-02-25T09:46:37.725Z,14.23
2019-02-25T09:47:38.798Z,14
2019-02-25T09:48:39.779Z,13.64
2019-02-25T09:49:40.487Z,13.58
2019-02-25T09:50:40.917Z,13.08
2019-02-25T09:51:42.046Z,12.83
2019-02-25T09:52:42.636Z,12.51
2019-02-25T09:53:43.070Z,12.66
2019-02-25T09:54:44.050Z,12.57
2019-02-25T09:55:44.227Z,12.57
2019-02-25T09:56:45.377Z,12.75
2019-02-25T09:57:46.084Z,12.9
2019-02-25T09:58:46.812Z,12.93
2019-02-25T09:59:47.520Z,13.11
2019-02-25T10:00:48.498Z,13.36
2019-02-25T10:01:48.928Z,13.42
2019-02-25T10:02:49.791Z,13.64
2019-02-25T10:03:50.338Z,13.86
2019-02-25T10:04:50.489Z,14.15
2019-02-25T10:05:51.692Z,14.49
2019-02-25T10:07:01.888Z,14.71
2019-02-25T10:07:04.225Z,14.77
2019-02-25T10:08:05.066Z,15.02
2019-02-25T10:09:05.504Z,15.18
2019-02-25T10:10:06.656Z,15.05
2019-02-25T10:11:08.193Z,14.82
2019-02-25T10:12:08.993Z,14.74
2019-02-25T10:13:12.429Z,14.62
2019-02-25T10:13:25.553Z,14.71
2019-02-25T10:13:37.310Z,14.68
2019-02-25T10:13:49.315Z,14.7
2019-02-25T10:14:01.571Z,14.81
2019-02-25T10:14:59.796Z,14.68
2019-02-25T10:16:00.058Z,14.73
2019-02-25T10:17:01.605Z,15.11
2019-02-25T10:18:02.050Z,15.23
2019-02-25T10:19:03.157Z,15.63
2019-02-25T10:20:03.943Z,15.83
2019-02-25T10:21:05.647Z,15.8
2019-02-25T10:22:06.119Z,15.81
2019-02-25T10:23:06.600Z,15.9
2019-02-25T10:24:08.017Z,16.09
2019-02-25T10:25:08.735Z,16.17
2019-02-25T10:26:10.563Z,16.61
2019-02-25T10:27:12.114Z,16.69
2019-02-25T10:28:12.554Z,16.34
2019-02-25T10:29:12.824Z,16.28
2019-02-25T10:30:13.024Z,16.24
2019-02-25T10:31:19.913Z,15.91
2019-02-25T10:31:30.865Z,15.88
2019-02-25T10:31:44.604Z,15.73
2019-02-25T10:31:53.708Z,15.84
2019-02-25T10:32:54.023Z,15.81
2019-02-25T10:33:54.338Z,16.26
2019-02-25T10:34:55.650Z,16.82
2019-02-25T10:35:55.639Z,17.23
2019-02-25T10:36:56.179Z,17.72
2019-02-25T10:37:56.619Z,18.12
2019-02-25T10:39:01.036Z,18.16
2019-02-25T10:40:00.023Z,18.26
2019-02-25T10:41:04.955Z,17.95
2019-02-25T10:41:18.847Z,17.94
2019-02-25T10:41:28.637Z,18
2019-02-25T10:42:33.352Z,17.71
2019-02-25T10:42:38.640Z,17.52
2019-02-25T10:43:39.199Z,16.98
2019-02-25T10:44:42.332Z,16.82
2019-02-25T10:45:46.375Z,16.65
2019-02-25T10:45:55.295Z,16.62
2019-02-25T10:46:55.046Z,16.82
2019-02-25T10:47:59.795Z,17.22
2019-02-25T10:49:14.923Z,17.34
2019-02-25T10:50:15.634Z,17.54
2019-02-25T10:51:16.633Z,17.8
2019-02-25T10:52:18.625Z,17.82
2019-02-25T10:53:23.045Z,17.68
2019-02-25T10:54:26.155Z,17.53
2019-02-25T10:55:24.936Z,17.65
2019-02-25T10:56:27.393Z,17.91
2019-02-25T10:57:32.462Z,17.72
2019-02-25T10:58:37.142Z,18.05
2019-02-25T10:58:43.008Z,18.03
2019-02-25T10:59:43.604Z,18.06
2019-02-25T11:00:46.774Z,17.76
2019-02-25T11:01:48.793Z,17.32
2019-02-25T11:03:01.646Z,16.97
2019-02-25T11:04:02.190Z,16.91
2019-02-25T11:05:02.898Z,16.95
2019-02-25T11:06:04.864Z,17.14
2019-02-25T11:07:10.554Z,17.49
2019-02-25T11:08:14.552Z,17.5
2019-02-25T11:08:21.692Z,17.52
2019-02-25T11:09:22.321Z,17.35
2019-02-25T11:10:24.178Z,17.5
2019-02-25T11:11:29.365Z,17.93
2019-02-25T11:12:33.186Z,17.97
2019-02-25T11:13:38.210Z,17.9
2019-02-25T11:14:43.963Z,17.52
2019-02-25T11:14:49.763Z,17.39
2019-02-25T11:15:50.905Z,17.16
2019-02-25T11:16:53.483Z,17.23
2019-02-25T11:17:57.108Z,17.41
2019-02-25T11:19:02.168Z,17.39
2019-02-25T11:20:06.663Z,17.35
2019-02-25T11:20:12.602Z,17.31
2019-02-25T11:21:13.776Z,17.27
2019-02-25T11:22:17.568Z,16.92
2019-02-25T11:23:23.153Z,16.76
2019-02-25T11:23:30.873Z,16.8
2019-02-25T11:24:32.036Z,16.89
2019-02-25T11:25:32.622Z,17.07
2019-02-25T11:26:36.142Z,17.13
2019-02-25T11:27:41.011Z,17.32
2019-02-25T11:28:45.012Z,17.42
2019-02-25T11:28:52.311Z,17.5
2019-02-25T11:29:52.916Z,17.72
2019-02-25T11:30:54.799Z,17.93
2019-02-25T11:31:56.576Z,17.91
2019-02-25T11:33:00.769Z,17.98
2019-02-25T11:34:08.435Z,17.78
2019-02-25T11:34:12.523Z,17.76
2019-02-25T11:35:14.876Z,17.8
2019-02-25T11:36:22.442Z,17.86
2019-02-25T11:36:27.443Z,17.9
2019-02-25T11:37:28.646Z,18.02
2019-02-25T11:38:41.405Z,18.03
2019-02-25T11:39:42.809Z,18.05
2019-02-25T11:40:42.523Z,17.9
2019-02-25T11:41:44.070Z,18.08
2019-02-25T11:42:44.070Z,18.12
2019-02-25T11:43:56.432Z,18.33
2019-02-25T11:45:09.991Z,18.23
2019-02-25T11:46:10.836Z,17.93
2019-02-25T11:47:11.432Z,17.68
2019-02-25T11:48:11.784Z,17.78
2019-02-25T11:49:12.939Z,17.88
2019-02-25T11:50:13.371Z,17.79
2019-02-25T11:51:14.388Z,17.8
2019-02-25T11:52:18.814Z,17.91
2019-02-25T11:53:17.140Z,17.95
2019-02-25T11:54:18.125Z,18.21
2019-02-25T11:55:19.110Z,18.31
2019-02-25T11:56:19.987Z,18.02
2019-02-25T11:57:20.758Z,17.53
2019-02-25T11:58:22.299Z,16.95
2019-02-25T11:59:23.008Z,16.68
2019-02-25T12:00:25.291Z,16.4
2019-02-25T12:01:26.375Z,16.03
2019-02-25T12:02:27.668Z,15.72
2019-02-25T12:03:28.022Z,15.59
2019-02-25T12:04:28.451Z,15.78
2019-02-25T12:05:31.103Z,15.91
2019-02-25T12:06:30.221Z,15.94
2019-02-25T12:07:30.365Z,15.9
2019-02-25T12:08:31.521Z,16.21
2019-02-25T12:09:32.230Z,16.36
2019-02-25T12:10:32.435Z,16.59
2019-02-25T12:11:34.838Z,16.64
2019-02-25T12:12:35.657Z,16.62
2019-02-25T12:13:36.651Z,16.72
2019-02-25T12:14:41.159Z,16.79
2019-02-25T12:14:52.273Z,16.79
2019-02-25T12:15:49.504Z,16.98
2019-02-25T12:16:50.213Z,16.97
2019-02-25T12:17:51.203Z,16.95
2019-02-25T12:18:51.912Z,16.74
2019-02-25T12:19:52.895Z,16.82
2019-02-25T12:20:54.211Z,16.83
2019-02-25T12:21:54.650Z,16.92
2019-02-25T12:22:55.188Z,17.05
2019-02-25T12:23:56.174Z,17.39
2019-02-25T12:24:56.885Z,17.37
2019-02-25T12:25:57.755Z,17.39
2019-02-25T12:26:59.117Z,17.32
2019-02-25T12:27:59.912Z,17.28
2019-02-25T12:29:00.620Z,17.1
2019-02-25T12:29:12.740Z,17.01
2019-02-25T12:30:13.140Z,16.62
2019-02-25T12:31:13.856Z,16.46
2019-02-25T12:32:14.846Z,16.47
2019-02-25T12:33:16.396Z,16.26
2019-02-25T12:34:16.665Z,16.17
2019-02-25T12:35:17.375Z,16.06
2019-02-25T12:36:18.813Z,15.91
2019-02-25T12:37:21.355Z,15.7
2019-02-25T12:38:21.950Z,15.75
2019-02-25T12:39:23.209Z,15.75
2019-02-25T12:40:24.063Z,15.91
2019-02-25T12:41:23.784Z,16.24
2019-02-25T12:42:24.492Z,16.34
2019-02-25T12:43:25.491Z,16.61
2019-02-25T12:44:25.931Z,16.66
2019-02-25T12:45:26.358Z,16.64
2019-02-25T12:46:27.509Z,16.59
2019-02-25T12:47:29.270Z,16.65
2019-02-25T12:47:41.705Z,16.62
2019-02-25T12:48:42.634Z,16.62
2019-02-25T12:49:43.008Z,16.55
2019-02-25T12:50:43.721Z,16.61
2019-02-25T12:51:44.442Z,16.57
2019-02-25T12:52:48.930Z,16.73
2019-02-25T12:52:58.671Z,16.76
2019-02-25T12:53:57.518Z,16.62
2019-02-25T12:54:58.227Z,16.66
2019-02-25T12:55:59.514Z,16.69
2019-02-25T12:57:00.822Z,16.79
2019-02-25T12:58:01.159Z,17.09